Time;durP1;ratioP1;P1;durP2;ratioP2;P2;SDS_P1;SDS_P2;PMS_P1;PMS_P2;Temp;Humidity;BMP_temperature;BMP_pressure;BME280_temperature;BME280_humidity;BME280_pressure;Samples;Min_cycle;Max_cycle;Signal;HPM_P1;HPM_P2
2022/05/24 00:00:57;;;;;;;7.70;4.53;;;;;;;;;;5042217;28;20184;-63
2022/05/24 00:03:24;;;;;;;7.07;4.87;;;;;;;;;;5030948;28;20219;-63
2022/05/24 00:05:51;;;;;;;6.37;4.50;;;;;;;;;;5049956;28;20222;-63
2022/05/24 00:08:17;;;;;;;6.47;4.03;;;;;;;;;;5049640;28;20242;-63
2022/05/24 00:10:46;;;;;;;6.23;4.43;;;;;;;;;;5051194;28;20191;-65
2022/05/24 00:13:12;;;;;;;6.80;4.30;;;;;;;;;;5036824;28;20460;-63
2022/05/24 00:15:39;;;;;;;8.00;4.90;;;;;;;;;;5030755;28;20206;-63
2022/05/24 00:18:19;;;;;;;5.87;4.33;;;;;;;;;;5030799;28;20294;-63
2022/05/24 00:20:47;;;;;;;8.53;5.37;;;;;;;;;;5044183;28;20260;-64
2022/05/24 00:23:15;;;;;;;9.63;5.60;;;;;;;;;;5030585;28;20191;-63
2022/05/24 00:25:43;;;;;;;9.70;6.13;;;;;;;;;;5033580;28;20618;-63
2022/05/24 00:28:10;;;;;;;5.80;4.47;;;;;;;;;;5032400;28;20211;-63
2022/05/24 00:30:37;;;;;;;7.50;4.60;;;;;;;;;;5030539;28;20202;-63
2022/05/24 00:33:03;;;;;;;8.03;4.93;;;;;;;;;;5030537;28;20873;-63
2022/05/24 00:35:30;;;;;;;10.37;6.13;;;;;;;;;;5034554;28;20457;-63
2022/05/24 00:37:57;;;;;;;8.37;5.63;;;;;;;;;;5026988;28;20635;-63
2022/05/24 00:41:02;;;;;;;9.57;5.77;;;;;;;;;;5045248;28;20198;-63
2022/05/24 00:43:33;;;;;;;7.93;5.67;;;;;;;;;;5025527;28;20199;-64
2022/05/24 00:46:05;;;;;;;9.50;6.23;;;;;;;;;;5009542;28;20917;-63
2022/05/24 00:48:36;;;;;;;10.03;6.27;;;;;;;;;;5028559;28;20681;-65
2022/05/24 00:51:03;;;;;;;10.80;5.63;;;;;;;;;;5029458;28;20441;-64
2022/05/24 00:53:34;;;;;;;10.43;6.63;;;;;;;;;;5028279;28;20198;-63
2022/05/24 00:56:23;;;;;;;9.30;5.53;;;;;;;;;;5047078;28;20445;-63
2022/05/24 00:58:53;;;;;;;10.57;6.40;;;;;;;;;;5047184;28;20277;-64
2022/05/24 01:01:39;;;;;;;9.30;5.40;;;;;;;;;;5030049;28;20374;-63
2022/05/24 01:04:06;;;;;;;9.20;5.17;;;;;;;;;;5022435;28;20936;-63
2022/05/24 01:06:50;;;;;;;8.00;5.13;;;;;;;;;;5048000;28;20261;-63
2022/05/24 01:09:33;;;;;;;7.83;5.23;;;;;;;;;;5049781;28;20561;-63
2022/05/24 01:12:03;;;;;;;8.27;5.73;;;;;;;;;;5048370;28;20553;-64
2022/05/24 01:14:30;;;;;;;7.57;4.93;;;;;;;;;;5028923;28;20199;-64
2022/05/24 01:16:57;;;;;;;7.07;5.30;;;;;;;;;;5029541;28;20199;-64
2022/05/24 01:19:27;;;;;;;8.90;5.20;;;;;;;;;;5029852;28;20186;-63
2022/05/24 01:21:54;;;;;;;8.97;5.77;;;;;;;;;;5028514;28;20195;-63
2022/05/24 01:24:29;;;;;;;11.13;6.10;;;;;;;;;;5039024;28;20195;-64
2022/05/24 01:26:56;;;;;;;8.63;5.93;;;;;;;;;;5043400;28;20183;-64
2022/05/24 01:29:23;;;;;;;14.03;6.93;;;;;;;;;;5029217;28;20453;-63
2022/05/24 01:37:29;;;;;;;8.87;6.07;;;;;;;;;;5028961;28;20191;-63
2022/05/24 01:40:13;;;;;;;9.13;5.97;;;;;;;;;;5049399;28;20206;-63
2022/05/24 01:42:40;;;;;;;8.47;5.80;;;;;;;;;;5042858;28;20195;-64
2022/05/24 01:45:06;;;;;;;9.63;6.10;;;;;;;;;;5049062;28;20448;-63
2022/05/24 01:47:33;;;;;;;9.50;5.87;;;;;;;;;;5046344;28;20211;-63
2022/05/24 01:50:02;;;;;;;7.00;5.30;;;;;;;;;;5028305;28;20188;-63
2022/05/24 01:52:31;;;;;;;8.77;6.07;;;;;;;;;;5026899;28;20464;-63
2022/05/24 01:55:00;;;;;;;8.20;5.60;;;;;;;;;;5020671;28;20211;-64
2022/05/24 01:57:28;;;;;;;8.93;5.80;;;;;;;;;;5048655;28;20182;-64
2022/05/24 01:59:56;;;;;;;9.33;5.90;;;;;;;;;;5048878;28;20524;-63
2022/05/24 02:02:22;;;;;;;9.13;6.23;;;;;;;;;;5048713;28;20447;-64
2022/05/24 02:04:50;;;;;;;8.57;5.90;;;;;;;;;;5047577;28;20988;-64
2022/05/24 02:07:17;;;;;;;8.77;6.30;;;;;;;;;;5033062;28;20453;-63
2022/05/24 02:09:47;;;;;;;9.43;6.30;;;;;;;;;;5028601;28;20191;-64
2022/05/24 02:12:14;;;;;;;9.30;6.60;;;;;;;;;;5028137;28;20508;-63
2022/05/24 02:14:42;;;;;;;8.13;6.07;;;;;;;;;;5041303;28;20233;-64
2022/05/24 02:17:16;;;;;;;8.37;5.80;;;;;;;;;;5047193;28;20495;-63
2022/05/24 02:19:49;;;;;;;9.27;6.57;;;;;;;;;;5032034;28;20551;-64
2022/05/24 02:22:20;;;;;;;12.73;6.27;;;;;;;;;;5038312;28;20195;-63
2022/05/24 02:25:07;;;;;;;9.33;6.00;;;;;;;;;;5028589;28;20529;-63
2022/05/24 02:27:38;;;;;;;8.67;6.40;;;;;;;;;;5027739;28;20219;-64
2022/05/24 02:30:05;;;;;;;9.13;5.90;;;;;;;;;;5027701;28;20441;-63
2022/05/24 02:32:31;;;;;;;7.43;5.50;;;;;;;;;;5036187;28;20449;-63
2022/05/24 02:34:58;;;;;;;8.33;6.20;;;;;;;;;;5027781;28;20485;-63
2022/05/24 02:37:25;;;;;;;9.70;6.30;;;;;;;;;;5047571;28;20481;-63
2022/05/24 02:42:36;;;;;;;9.07;6.43;;;;;;;;;;5033417;28;20542;-62
2022/05/24 02:45:03;;;;;;;8.10;6.10;;;;;;;;;;5045928;28;20457;-63
2022/05/24 02:47:30;;;;;;;7.43;6.20;;;;;;;;;;5043511;28;20578;-63
2022/05/24 02:49:57;;;;;;;9.97;6.20;;;;;;;;;;5030103;28;20248;-61
2022/05/24 02:52:23;;;;;;;8.60;6.03;;;;;;;;;;5045336;28;20179;-63
2022/05/24 02:54:50;;;;;;;10.00;6.27;;;;;;;;;;5045415;28;20281;-62
2022/05/24 02:57:17;;;;;;;9.30;6.37;;;;;;;;;;5028041;28;20245;-64
2022/05/24 03:00:03;;;;;;;9.87;7.10;;;;;;;;;;5027645;28;20421;-66
2022/05/24 03:02:30;;;;;;;9.43;6.63;;;;;;;;;;5031782;28;20198;-64
2022/05/24 03:04:59;;;;;;;11.27;7.27;;;;;;;;;;5027832;28;20720;-62
2022/05/24 03:10:13;;;;;;;10.63;6.73;;;;;;;;;;5028125;28;20172;-64
2022/05/24 03:15:25;;;;;;;10.23;6.90;;;;;;;;;;5027944;28;20202;-62
2022/05/24 03:17:52;;;;;;;10.40;7.17;;;;;;;;;;5029887;28;20220;-64
2022/05/24 03:20:20;;;;;;;9.80;6.77;;;;;;;;;;5037505;28;20459;-64
2022/05/24 03:23:04;;;;;;;10.07;6.50;;;;;;;;;;5039715;28;20657;-65
2022/05/24 03:25:32;;;;;;;10.70;6.80;;;;;;;;;;5039450;28;20282;-64
2022/05/24 03:28:00;;;;;;;9.23;6.63;;;;;;;;;;5038529;28;20218;-63
2022/05/24 03:30:27;;;;;;;10.27;7.03;;;;;;;;;;5037763;28;21189;-63
2022/05/24 03:32:54;;;;;;;10.33;6.87;;;;;;;;;;5040006;28;20723;-63
2022/05/24 03:35:20;;;;;;;8.67;6.63;;;;;;;;;;5039321;28;20213;-62
2022/05/24 03:37:48;;;;;;;8.23;6.30;;;;;;;;;;5041588;28;20254;-65
2022/05/24 03:40:33;;;;;;;8.43;5.50;;;;;;;;;;5039703;28;20190;-65
2022/05/24 03:43:01;;;;;;;8.47;6.10;;;;;;;;;;5038877;28;20609;-66
2022/05/24 03:45:28;;;;;;;7.17;5.23;;;;;;;;;;5038390;28;20302;-67
2022/05/24 03:47:55;;;;;;;7.63;5.63;;;;;;;;;;5040701;28;20293;-66
2022/05/24 03:50:23;;;;;;;10.10;5.97;;;;;;;;;;5040869;28;20243;-65
2022/05/24 03:52:49;;;;;;;11.67;5.87;;;;;;;;;;5039649;28;20911;-66
2022/05/24 03:55:16;;;;;;;8.27;5.93;;;;;;;;;;5038050;28;20206;-66
2022/05/24 03:58:01;;;;;;;9.40;5.93;;;;;;;;;;5038848;28;20199;-66
2022/05/24 04:00:32;;;;;;;9.87;5.97;;;;;;;;;;5035820;28;20794;-63
2022/05/24 04:03:00;;;;;;;8.40;6.10;;;;;;;;;;5039210;28;20322;-63
2022/05/24 04:05:27;;;;;;;7.23;5.53;;;;;;;;;;5038033;28;20233;-63
2022/05/24 04:07:53;;;;;;;10.47;6.30;;;;;;;;;;5038054;28;20214;-63
2022/05/24 04:10:20;;;;;;;12.50;6.23;;;;;;;;;;5038448;28;20956;-63
2022/05/24 04:12:47;;;;;;;8.80;6.57;;;;;;;;;;5037003;28;20681;-62
2022/05/24 04:15:14;;;;;;;10.33;6.77;;;;;;;;;;5041977;28;20190;-62
2022/05/24 04:17:41;;;;;;;10.77;6.80;;;;;;;;;;5022846;28;20239;-63
2022/05/24 04:20:09;;;;;;;13.70;7.93;;;;;;;;;;5021909;28;20199;-63
2022/05/24 04:22:36;;;;;;;13.17;7.30;;;;;;;;;;5022365;28;20203;-62
2022/05/24 04:25:02;;;;;;;7.80;6.63;;;;;;;;;;5022129;28;20311;-65
2022/05/24 04:27:29;;;;;;;8.53;6.43;;;;;;;;;;5022294;28;20195;-63
2022/05/24 04:29:56;;;;;;;11.80;6.67;;;;;;;;;;5022657;28;20219;-64
2022/05/24 04:32:23;;;;;;;8.33;6.33;;;;;;;;;;5027841;28;20238;-64
2022/05/24 04:34:50;;;;;;;8.37;6.53;;;;;;;;;;5023746;28;20275;-65
2022/05/24 04:37:17;;;;;;;8.63;6.27;;;;;;;;;;5026883;28;20263;-62
2022/05/24 04:39:44;;;;;;;9.43;5.90;;;;;;;;;;5022150;28;20191;-63
2022/05/24 04:42:21;;;;;;;9.77;6.70;;;;;;;;;;5020753;28;20204;-62
2022/05/24 04:44:56;;;;;;;9.37;5.80;;;;;;;;;;5018247;28;20210;-63
2022/05/24 04:47:23;;;;;;;7.70;6.23;;;;;;;;;;5020850;28;20199;-63
2022/05/24 04:49:53;;;;;;;7.70;6.10;;;;;;;;;;5024063;28;20665;-65
2022/05/24 04:52:24;;;;;;;8.73;6.33;;;;;;;;;;5026662;28;20187;-62
2022/05/24 04:54:51;;;;;;;8.57;6.37;;;;;;;;;;5013244;28;20188;-63
2022/05/24 04:57:18;;;;;;;9.77;6.77;;;;;;;;;;5027158;28;20195;-61
2022/05/24 04:59:44;;;;;;;10.83;7.10;;;;;;;;;;5028924;28;20257;-61
2022/05/24 05:02:16;;;;;;;8.27;6.67;;;;;;;;;;5012700;28;20714;-61
2022/05/24 05:04:42;;;;;;;9.00;6.50;;;;;;;;;;5010339;28;20302;-61
2022/05/24 05:07:10;;;;;;;8.67;6.77;;;;;;;;;;5010327;28;20199;-61
2022/05/24 05:09:38;;;;;;;8.20;6.90;;;;;;;;;;5010465;28;20208;-61
2022/05/24 05:12:05;;;;;;;8.70;6.70;;;;;;;;;;5010184;28;20191;-61
2022/05/24 05:14:49;;;;;;;8.40;6.57;;;;;;;;;;5010075;28;20176;-61
2022/05/24 05:17:18;;;;;;;11.70;6.93;;;;;;;;;;5018242;28;20191;-61
2022/05/24 05:19:46;;;;;;;8.43;6.40;;;;;;;;;;5030265;28;20191;-61
2022/05/24 05:22:19;;;;;;;9.27;6.47;;;;;;;;;;5028439;28;21008;-61
2022/05/24 05:25:04;;;;;;;8.67;6.57;;;;;;;;;;5029894;28;20569;-61
2022/05/24 05:27:30;;;;;;;9.97;6.63;;;;;;;;;;5029638;28;20187;-61
2022/05/24 05:33:00;;;;;;;9.97;6.23;;;;;;;;;;5019717;28;20201;-61
2022/05/24 05:35:46;;;;;;;9.97;6.97;;;;;;;;;;5009723;28;20168;-61
2022/05/24 05:38:13;;;;;;;9.03;6.90;;;;;;;;;;5009844;28;20931;-61
2022/05/24 05:40:58;;;;;;;8.30;6.03;;;;;;;;;;5010093;28;20175;-61
2022/05/24 05:43:25;;;;;;;8.60;7.30;;;;;;;;;;5008231;28;20200;-61
2022/05/24 05:46:09;;;;;;;10.20;6.40;;;;;;;;;;5009793;28;20172;-61
2022/05/24 05:48:36;;;;;;;9.03;6.53;;;;;;;;;;5009170;28;20259;-61
2022/05/24 05:51:03;;;;;;;8.07;6.70;;;;;;;;;;5008316;28;20678;-61
2022/05/24 05:53:30;;;;;;;8.57;6.27;;;;;;;;;;5043428;28;20207;-61
2022/05/24 05:55:56;;;;;;;12.00;5.80;;;;;;;;;;5028212;28;20187;-61
2022/05/24 05:58:23;;;;;;;9.17;6.37;;;;;;;;;;5028938;28;20270;-61
2022/05/24 06:00:50;;;;;;;8.43;6.07;;;;;;;;;;5029226;28;20199;-61
2022/05/24 06:03:17;;;;;;;10.33;6.33;;;;;;;;;;5028930;28;20274;-61
2022/05/24 06:05:44;;;;;;;9.33;6.33;;;;;;;;;;5028083;28;20314;-61
2022/05/24 06:08:12;;;;;;;10.50;6.53;;;;;;;;;;5024001;28;20417;-62
2022/05/24 06:10:46;;;;;;;12.20;6.13;;;;;;;;;;5009570;28;20988;-61
2022/05/24 06:13:13;;;;;;;8.20;5.40;;;;;;;;;;5009164;28;20196;-61
2022/05/24 06:15:42;;;;;;;11.07;5.53;;;;;;;;;;5008933;28;20200;-61
2022/05/24 06:18:09;;;;;;;9.27;6.13;;;;;;;;;;5007625;28;20207;-61
2022/05/24 06:20:35;;;;;;;7.07;5.50;;;;;;;;;;5008986;28;21054;-60
2022/05/24 06:23:03;;;;;;;10.33;5.30;;;;;;;;;;5008584;28;20207;-60
2022/05/24 06:25:30;;;;;;;8.13;5.00;;;;;;;;;;5008739;28;20635;-60
2022/05/24 06:27:57;;;;;;;7.13;5.30;;;;;;;;;;5008908;28;20556;-60
2022/05/24 06:30:24;;;;;;;8.10;5.57;;;;;;;;;;5008621;28;20301;-60
2022/05/24 06:32:51;;;;;;;6.37;4.97;;;;;;;;;;5008657;28;20188;-60
2022/05/24 06:35:18;;;;;;;6.57;5.43;;;;;;;;;;5007182;28;20200;-61
2022/05/24 06:38:02;;;;;;;6.63;5.20;;;;;;;;;;5008725;28;20179;-61
2022/05/24 06:40:29;;;;;;;8.40;5.40;;;;;;;;;;5020701;28;20678;-60
2022/05/24 06:42:55;;;;;;;6.97;5.00;;;;;;;;;;5028401;28;20188;-60
2022/05/24 06:45:22;;;;;;;8.37;5.20;;;;;;;;;;5028107;28;20202;-60
2022/05/24 06:47:49;;;;;;;13.50;5.70;;;;;;;;;;5028215;28;20639;-60
2022/05/24 06:50:20;;;;;;;9.33;5.60;;;;;;;;;;5028005;28;20223;-59
2022/05/24 06:52:47;;;;;;;7.07;5.00;;;;;;;;;;5028224;28;20204;-59
2022/05/24 06:55:17;;;;;;;7.30;5.33;;;;;;;;;;5028031;28;20659;-61
2022/05/24 06:57:44;;;;;;;12.00;5.37;;;;;;;;;;5008695;28;20228;-60
2022/05/24 07:03:03;;;;;;;6.43;5.10;;;;;;;;;;5010640;28;20263;-60
2022/05/24 07:05:30;;;;;;;9.80;4.83;;;;;;;;;;5009297;28;20234;-60
2022/05/24 07:08:00;;;;;;;6.87;4.70;;;;;;;;;;5022680;28;20234;-61
2022/05/24 07:10:27;;;;;;;7.73;4.63;;;;;;;;;;5023489;28;20229;-61
2022/05/24 07:57:09;;;;;;;10.00;3.40;;;;;;;;;;4773463;28;1348551;-76
2022/05/24 07:59:37;;;;;;;6.13;2.90;;;;;;;;;;4970886;28;20241;-76
2022/05/24 08:02:06;;;;;;;5.13;3.20;;;;;;;;;;4986809;28;243960;-70
2022/05/24 08:04:34;;;;;;;8.83;3.10;;;;;;;;;;4997808;28;20598;-66
2022/05/24 08:07:02;;;;;;;4.60;2.80;;;;;;;;;;4998288;28;20496;-67
2022/05/24 08:09:28;;;;;;;5.27;2.77;;;;;;;;;;5016553;28;20240;-65
2022/05/24 08:11:55;;;;;;;6.97;2.67;;;;;;;;;;5019943;28;28999;-64
2022/05/24 08:14:22;;;;;;;4.00;2.90;;;;;;;;;;5021082;28;22496;-70
2022/05/24 08:16:48;;;;;;;5.80;2.70;;;;;;;;;;4999157;28;635759;-66
2022/05/24 08:19:16;;;;;;;6.33;2.90;;;;;;;;;;5030706;28;20959;-69
2022/05/24 08:22:01;;;;;;;3.77;2.50;;;;;;;;;;5003190;28;641947;-76
2022/05/24 08:24:29;;;;;;;4.90;2.43;;;;;;;;;;4965419;28;219415;-83
2022/05/24 08:26:56;;;;;;;5.23;2.40;;;;;;;;;;4989299;28;218740;-66
2022/05/24 08:29:24;;;;;;;3.97;2.70;;;;;;;;;;5030956;28;217464;-67
2022/05/24 08:31:52;;;;;;;5.00;2.80;;;;;;;;;;5032451;28;20304;-68
2022/05/24 08:34:19;;;;;;;5.50;2.50;;;;;;;;;;5034020;28;20248;-72
2022/05/24 08:36:46;;;;;;;3.63;2.50;;;;;;;;;;5033175;28;20325;-75
2022/05/24 08:39:13;;;;;;;8.20;2.53;;;;;;;;;;5025858;28;72115;-72
2022/05/24 08:42:09;;;;;;;8.40;2.53;;;;;;;;;;5032539;28;20229;-73
2022/05/24 08:50:17;;;;;;;5.27;2.40;;;;;;;;;;5007910;28;235165;-72
2022/05/24 08:52:54;;;;;;;4.73;2.03;;;;;;;;;;5004768;28;21373;-73
2022/05/24 08:55:20;;;;;;;8.60;2.47;;;;;;;;;;5030835;28;31403;-73
2022/05/24 08:57:52;;;;;;;9.37;2.57;;;;;;;;;;4998395;28;75766;-73
2022/05/24 09:00:25;;;;;;;5.00;2.27;;;;;;;;;;4995230;28;222239;-81
2022/05/24 09:02:54;;;;;;;8.47;2.40;;;;;;;;;;4961635;28;20240;-77
2022/05/24 09:05:27;;;;;;;9.60;2.40;;;;;;;;;;4965921;28;214051;-76
2022/05/24 09:08:19;;;;;;;13.00;2.50;;;;;;;;;;4799171;28;5088458;-77
2022/05/24 09:10:50;;;;;;;6.00;2.20;;;;;;;;;;4954994;28;227992;-76
2022/05/24 09:13:20;;;;;;;6.27;2.10;;;;;;;;;;4943755;28;223424;-75
2022/05/24 09:15:49;;;;;;;8.73;2.33;;;;;;;;;;4988735;28;29029;-75
2022/05/24 09:18:22;;;;;;;4.37;2.10;;;;;;;;;;5030434;28;20681;-68
2022/05/24 09:20:50;;;;;;;3.63;1.60;;;;;;;;;;5012812;28;20558;-72
2022/05/24 09:23:24;;;;;;;5.53;2.30;;;;;;;;;;5023983;28;22724;-73
2022/05/24 09:29:26;;;;;;;6.47;2.03;;;;;;;;;;4969044;28;20236;-74
2022/05/24 09:32:12;;;;;;;4.07;2.13;;;;;;;;;;5022967;28;20230;-71
2022/05/24 09:34:39;;;;;;;3.10;1.70;;;;;;;;;;4929647;28;216854;-71
2022/05/24 09:37:24;;;;;;;7.83;2.30;;;;;;;;;;5008459;28;20254;-70
2022/05/24 09:40:16;;;;;;;8.30;2.20;;;;;;;;;;5021954;28;21790;-73
2022/05/24 09:42:43;;;;;;;2.20;2.00;;;;;;;;;;4939280;28;260782;-66
2022/05/24 09:45:16;;;;;;;3.43;1.97;;;;;;;;;;4978947;28;222213;-74
2022/05/24 09:47:43;;;;;;;4.40;2.00;;;;;;;;;;5017429;28;30910;-73
2022/05/24 09:50:32;;;;;;;5.73;2.03;;;;;;;;;;4999334;28;754216;-87
2022/05/24 09:53:19;;;;;;;2.87;2.10;;;;;;;;;;4873903;28;20773;-77
2022/05/24 09:55:47;;;;;;;10.03;2.33;;;;;;;;;;4701361;28;5089741;-78
2022/05/24 09:59:26;;;;;;;4.47;2.27;;;;;;;;;;4904842;28;20233;-80
2022/05/24 10:02:22;;;;;;;4.33;2.03;;;;;;;;;;4967135;28;234306;-81
2022/05/24 10:04:52;;;;;;;6.07;2.10;;;;;;;;;;4869621;28;241596;-74
2022/05/24 10:07:27;;;;;;;5.37;2.27;;;;;;;;;;4980930;28;20238;-75
2022/05/24 10:10:07;;;;;;;5.30;2.27;;;;;;;;;;5000785;28;20409;-75
2022/05/24 10:12:56;;;;;;;4.37;2.37;;;;;;;;;;4977997;28;23858;-74
2022/05/24 10:22:36;;;;;;;4.40;2.10;;;;;;;;;;4903394;28;23701;-74
2022/05/24 10:25:12;;;;;;;4.40;2.10;;;;;;;;;;4960804;28;226223;-77
2022/05/24 10:27:59;;;;;;;5.97;2.27;;;;;;;;;;4652949;28;5094110;-73
2022/05/24 10:31:07;;;;;;;6.07;2.80;;;;;;;;;;4987656;28;215640;-80
2022/05/24 10:38:51;;;;;;;7.13;2.40;;;;;;;;;;4928149;28;20286;-64
2022/05/24 10:41:32;;;;;;;2.93;2.30;;;;;;;;;;4972255;28;35756;-66
2022/05/24 10:44:05;;;;;;;4.77;2.30;;;;;;;;;;4951304;28;20238;-66
2022/05/24 10:46:38;;;;;;;3.33;2.00;;;;;;;;;;4972028;28;20238;-66
2022/05/24 10:49:16;;;;;;;6.13;2.43;;;;;;;;;;4942080;28;22757;-66
2022/05/24 10:51:52;;;;;;;3.97;2.03;;;;;;;;;;4963215;28;20231;-66
2022/05/24 10:54:27;;;;;;;7.40;2.70;;;;;;;;;;4919975;28;20227;-67
2022/05/24 10:57:04;;;;;;;8.77;2.47;;;;;;;;;;4935372;28;20250;-68
2022/05/24 10:59:32;;;;;;;6.53;2.30;;;;;;;;;;4926718;28;33156;-65
2022/05/24 11:02:28;;;;;;;5.83;2.37;;;;;;;;;;4973170;28;20223;-66
2022/05/24 11:04:58;;;;;;;7.27;2.07;;;;;;;;;;4966737;28;20298;-64
2022/05/24 11:07:24;;;;;;;6.53;2.63;;;;;;;;;;4999012;28;20235;-63
2022/05/24 11:10:05;;;;;;;6.53;2.13;;;;;;;;;;5001104;28;20338;-64
2022/05/24 11:12:37;;;;;;;6.60;2.67;;;;;;;;;;4973953;28;20274;-65
2022/05/24 11:15:06;;;;;;;7.33;2.63;;;;;;;;;;4973115;28;20231;-65
2022/05/24 11:17:32;;;;;;;6.97;2.20;;;;;;;;;;4974716;28;20239;-68
2022/05/24 11:19:59;;;;;;;4.53;2.30;;;;;;;;;;4992683;28;29853;-75
2022/05/24 11:22:41;;;;;;;5.73;2.00;;;;;;;;;;4945884;28;20508;-78
2022/05/24 11:25:13;;;;;;;6.40;2.50;;;;;;;;;;4953500;28;224744;-77
2022/05/24 11:27:44;;;;;;;4.67;2.10;;;;;;;;;;4908699;28;683636;-75
2022/05/24 11:33:40;;;;;;;3.40;2.30;;;;;;;;;;4890867;28;640882;-79
2022/05/24 11:36:32;;;;;;;5.60;2.40;;;;;;;;;;4914749;28;223803;-71
2022/05/24 11:39:05;;;;;;;9.03;2.60;;;;;;;;;;4971630;28;20234;-80
2022/05/24 11:41:33;;;;;;;5.30;2.20;;;;;;;;;;4939028;28;224837;-78
2022/05/24 11:44:01;;;;;;;9.53;2.37;;;;;;;;;;4992118;28;27251;-75
2022/05/24 11:46:34;;;;;;;4.67;2.00;;;;;;;;;;4958309;28;20301;-75
2022/05/24 11:49:03;;;;;;;4.93;2.22;;;;;;;;;;4770734;28;5093254;-75
2022/05/24 11:51:41;;;;;;;5.03;2.00;;;;;;;;;;4939374;28;217146;-82
2022/05/24 11:54:23;;;;;;;6.27;2.17;;;;;;;;;;4784439;28;20237;-81
2022/05/24 11:57:10;;;;;;;5.83;2.10;;;;;;;;;;4814541;28;235109;-74
2022/05/24 11:59:43;;;;;;;7.43;2.10;;;;;;;;;;4906746;28;257531;-77
2022/05/24 12:02:20;;;;;;;3.17;2.00;;;;;;;;;;4955481;28;637902;-78
2022/05/24 12:07:54;;;;;;;3.77;1.87;;;;;;;;;;4961657;28;32534;-77
2022/05/24 12:15:25;;;;;;;3.67;2.33;;;;;;;;;;4889237;28;693162;-78
2022/05/24 12:18:11;;;;;;;3.50;2.57;;;;;;;;;;4957082;28;35372;-76
2022/05/24 12:20:38;;;;;;;6.13;2.60;;;;;;;;;;4988709;28;27512;-71
2022/05/24 12:23:09;;;;;;;4.67;2.27;;;;;;;;;;4959885;28;221445;-73
2022/05/24 12:25:52;;;;;;;5.67;2.60;;;;;;;;;;4949582;28;55127;-74
2022/05/24 12:28:33;;;;;;;3.80;2.40;;;;;;;;;;4621051;28;5087699;-77
2022/05/24 12:31:00;;;;;;;4.77;2.50;;;;;;;;;;4987557;28;22736;-77
2022/05/24 12:33:34;;;;;;;6.40;3.40;;;;;;;;;;4975043;28;29333;-77
2022/05/24 12:36:08;;;;;;;5.53;2.53;;;;;;;;;;4962866;28;36025;-77
2022/05/24 12:38:35;;;;;;;4.53;2.90;;;;;;;;;;4939701;28;235871;-76
2022/05/24 12:41:17;;;;;;;5.70;2.27;;;;;;;;;;4927622;28;239026;-79
2022/05/24 12:43:49;;;;;;;4.73;2.90;;;;;;;;;;4750299;28;650826;-81
2022/05/24 12:50:37;;;;;;;3.90;2.80;;;;;;;;;;4901300;28;222827;-74
2022/05/24 12:53:26;;;;;;;5.37;3.00;;;;;;;;;;4939235;28;29759;-76
2022/05/24 12:56:02;;;;;;;3.17;2.63;;;;;;;;;;4947209;28;231568;-74
2022/05/24 12:58:29;;;;;;;3.60;2.47;;;;;;;;;;4978068;28;49678;-77
2022/05/24 13:01:12;;;;;;;7.80;3.17;;;;;;;;;;4891261;28;645120;-77
2022/05/24 13:03:43;;;;;;;5.63;3.00;;;;;;;;;;4756880;28;5092508;-77
2022/05/24 13:06:24;;;;;;;6.00;2.60;;;;;;;;;;4937340;28;215588;-79
2022/05/24 13:09:10;;;;;;;5.40;3.00;;;;;;;;;;4969395;28;234557;-78
2022/05/24 13:11:37;;;;;;;5.37;3.30;;;;;;;;;;4986750;28;65686;-71
2022/05/24 13:14:04;;;;;;;6.63;3.07;;;;;;;;;;5008137;28;20226;-78
2022/05/24 13:16:31;;;;;;;4.83;2.80;;;;;;;;;;4960231;28;213095;-73
2022/05/24 13:18:58;;;;;;;5.33;2.90;;;;;;;;;;4976243;28;37900;-74
2022/05/24 13:21:25;;;;;;;6.03;2.87;;;;;;;;;;4982001;28;20244;-77
2022/05/24 13:24:19;;;;;;;4.60;3.13;;;;;;;;;;4941896;28;34144;-81
2022/05/24 13:27:02;;;;;;;6.67;3.07;;;;;;;;;;4987626;28;389371;-78
2022/05/24 13:29:29;;;;;;;4.23;3.30;;;;;;;;;;4969830;28;218055;-78
2022/05/24 13:35:09;;;;;;;4.67;2.80;;;;;;;;;;4992149;28;44472;-71
2022/05/24 13:37:49;;;;;;;6.20;3.33;;;;;;;;;;4975856;28;233334;-74
2022/05/24 13:40:16;;;;;;;7.13;3.60;;;;;;;;;;4964772;28;20458;-68
2022/05/24 13:42:56;;;;;;;8.03;3.80;;;;;;;;;;4951316;28;220102;-80
2022/05/24 13:45:24;;;;;;;7.20;3.43;;;;;;;;;;4988061;28;28706;-72
2022/05/24 13:47:55;;;;;;;4.90;2.93;;;;;;;;;;5002366;28;216326;-74
2022/05/24 13:50:38;;;;;;;4.17;2.87;;;;;;;;;;4984488;28;20690;-74
2022/05/24 13:53:09;;;;;;;5.83;2.87;;;;;;;;;;5009534;28;20234;-75
2022/05/24 13:55:41;;;;;;;7.53;3.40;;;;;;;;;;4994309;28;20284;-72
2022/05/24 13:58:10;;;;;;;3.60;3.00;;;;;;;;;;4964138;28;219907;-66
2022/05/24 14:00:37;;;;;;;5.87;3.00;;;;;;;;;;4952932;28;31265;-77
2022/05/24 14:03:07;;;;;;;5.87;2.83;;;;;;;;;;5008565;28;30344;-77
2022/05/24 14:05:34;;;;;;;3.47;2.80;;;;;;;;;;4997480;28;217303;-80
2022/05/24 14:08:01;;;;;;;3.53;2.40;;;;;;;;;;4978837;28;215084;-78
2022/05/24 14:10:29;;;;;;;7.43;2.90;;;;;;;;;;4947667;28;45125;-74
2022/05/24 14:12:56;;;;;;;4.87;2.73;;;;;;;;;;4989398;28;24951;-76
2022/05/24 14:15:41;;;;;;;5.13;3.00;;;;;;;;;;4964712;28;54277;-78
2022/05/24 14:18:08;;;;;;;4.83;3.20;;;;;;;;;;4998484;28;63093;-74
2022/05/24 14:20:35;;;;;;;6.10;3.30;;;;;;;;;;4991061;28;20223;-79
2022/05/24 14:23:02;;;;;;;3.77;3.07;;;;;;;;;;4952304;28;216199;-79
2022/05/24 14:25:28;;;;;;;5.00;3.60;;;;;;;;;;4889146;28;701751;-80
2022/05/24 14:27:56;;;;;;;4.33;3.20;;;;;;;;;;5000166;28;20227;-78
2022/05/24 14:30:22;;;;;;;6.83;3.80;;;;;;;;;;4976169;28;218473;-79
2022/05/24 14:32:50;;;;;;;5.60;4.10;;;;;;;;;;4967477;28;217388;-78
2022/05/24 14:35:17;;;;;;;5.10;3.77;;;;;;;;;;5001245;28;22219;-77
2022/05/24 14:37:43;;;;;;;7.03;4.03;;;;;;;;;;5011257;28;33620;-76
2022/05/24 14:40:12;;;;;;;5.83;4.60;;;;;;;;;;4989268;28;20219;-77
2022/05/24 14:42:42;;;;;;;8.47;5.63;;;;;;;;;;5019183;28;20253;-76
2022/05/24 14:45:09;;;;;;;7.30;5.03;;;;;;;;;;5031951;28;35546;-77
2022/05/24 14:47:37;;;;;;;6.73;5.73;;;;;;;;;;5003619;28;34005;-78
2022/05/24 14:50:04;;;;;;;10.77;5.80;;;;;;;;;;5019954;28;28307;-77
2022/05/24 14:52:31;;;;;;;7.87;5.67;;;;;;;;;;4994865;28;20305;-74
2022/05/24 14:54:59;;;;;;;5.90;5.37;;;;;;;;;;4959872;28;20590;-74
2022/05/24 14:57:25;;;;;;;8.87;5.50;;;;;;;;;;4988126;28;219002;-73
2022/05/24 14:59:53;;;;;;;8.50;5.97;;;;;;;;;;4980484;28;40526;-73
2022/05/24 15:02:22;;;;;;;9.07;5.77;;;;;;;;;;4972534;28;230515;-74
2022/05/24 15:04:50;;;;;;;6.70;6.00;;;;;;;;;;4972429;28;246927;-78
2022/05/24 15:15:39;;;;;;;9.77;7.47;;;;;;;;;;4997519;28;20242;-73
2022/05/24 15:18:06;;;;;;;9.70;8.00;;;;;;;;;;4967617;28;20645;-69
2022/05/24 15:20:38;;;;;;;8.77;7.33;;;;;;;;;;4954624;28;20227;-82
2022/05/24 15:23:09;;;;;;;8.27;7.00;;;;;;;;;;4925343;28;20289;-81
2022/05/24 15:25:46;;;;;;;8.90;7.53;;;;;;;;;;4928347;28;219701;-74
2022/05/24 15:28:15;;;;;;;12.53;7.90;;;;;;;;;;4954261;28;20227;-77
2022/05/24 15:30:42;;;;;;;9.27;7.90;;;;;;;;;;4574468;28;5091666;-76
2022/05/24 15:33:10;;;;;;;9.30;7.43;;;;;;;;;;4993186;28;21722;-79
2022/05/24 15:35:57;;;;;;;8.43;6.87;;;;;;;;;;4980156;28;21961;-79
2022/05/24 15:38:30;;;;;;;10.67;9.67;;;;;;;;;;4971406;28;221172;-77
2022/05/24 15:41:00;;;;;;;9.47;8.47;;;;;;;;;;4993358;28;21552;-83
2022/05/24 15:43:28;;;;;;;9.90;8.40;;;;;;;;;;4992650;28;31146;-75
2022/05/24 15:45:55;;;;;;;14.40;11.40;;;;;;;;;;5011041;28;232348;-81
2022/05/24 15:48:25;;;;;;;10.97;9.33;;;;;;;;;;4955554;28;20479;-74
2022/05/24 15:50:52;;;;;;;15.57;11.80;;;;;;;;;;5013123;28;239367;-76
2022/05/24 15:53:20;;;;;;;14.90;11.40;;;;;;;;;;5018762;28;20238;-75
2022/05/24 15:55:46;;;;;;;16.87;12.37;;;;;;;;;;5021727;28;20906;-75
2022/05/24 15:58:13;;;;;;;11.83;10.03;;;;;;;;;;4908959;28;215774;-70
2022/05/24 16:00:42;;;;;;;13.90;10.27;;;;;;;;;;4985230;28;221475;-81
2022/05/24 16:03:09;;;;;;;14.73;10.77;;;;;;;;;;4710698;28;240841;-81
2022/05/24 16:11:18;;;;;;;17.17;11.33;;;;;;;;;;4773433;28;218407;-86
2022/05/24 16:13:46;;;;;;;17.50;12.87;;;;;;;;;;4796054;28;687458;-84
2022/05/24 16:16:30;;;;;;;12.30;9.93;;;;;;;;;;4744807;28;269742;-81
2022/05/24 16:19:31;;;;;;;12.97;10.03;;;;;;;;;;4870598;28;217595;-83
2022/05/24 16:22:00;;;;;;;11.73;9.77;;;;;;;;;;4976848;28;215812;-77
2022/05/24 16:24:26;;;;;;;11.87;9.40;;;;;;;;;;4995432;28;232357;-80
2022/05/24 16:26:54;;;;;;;12.13;9.80;;;;;;;;;;4938306;28;221135;-80
2022/05/24 16:29:21;;;;;;;10.40;8.70;;;;;;;;;;4949347;28;643354;-76
2022/05/24 16:31:48;;;;;;;9.80;8.80;;;;;;;;;;4947302;28;219785;-80
2022/05/24 16:34:16;;;;;;;11.60;8.97;;;;;;;;;;4967737;28;220948;-77
2022/05/24 16:36:42;;;;;;;16.80;9.80;;;;;;;;;;5005710;28;22948;-73
2022/05/24 16:39:09;;;;;;;11.33;8.87;;;;;;;;;;5003177;28;221167;-78
2022/05/24 16:41:37;;;;;;;10.97;8.13;;;;;;;;;;4865907;28;218476;-79
2022/05/24 16:44:04;;;;;;;9.57;8.53;;;;;;;;;;4882989;28;225231;-73
2022/05/24 16:46:32;;;;;;;8.93;8.03;;;;;;;;;;4801585;28;235333;-75
2022/05/24 16:49:01;;;;;;;9.50;8.60;;;;;;;;;;4889024;28;232407;-77
2022/05/24 16:51:38;;;;;;;11.53;8.87;;;;;;;;;;4881260;28;25527;-77
2022/05/24 16:59:39;;;;;;;11.77;8.40;;;;;;;;;;4962077;28;43946;-69
2022/05/24 17:02:07;;;;;;;10.23;8.93;;;;;;;;;;4958079;28;50128;-76
2022/05/24 17:04:34;;;;;;;12.00;9.57;;;;;;;;;;4929245;28;214689;-76